CheckWX is a tool to help pilots better visualize weather data.  It is not intended as a substitute for an official pre-flight weather briefing.

08:25:04 UTC

KGVE METAR
Gordonsville Municipal Airport
Gordonsville, Virginia, USA
Current

10 mins ago

KGVE 150815Z AUTO 00000KT 5SM BR BKN070 BKN090 20/20 A3016 RMK AO1 T02000200
Observed
Sep-15 @ 08:15 UTC
Visibility
5 SM
Flight Rules
MVFR
Conditions
Mist
Cloud Levels
  • Broken at 7,000' AGL
  • Broken at 9,000' AGL
Temperature
20°C / 68°F
Dewpoint
20°C / 68°F
Humidity
100%
Altimeter
30.16" Hg
Pressure
1021.32 hPa
Previous

30 mins ago

KGVE 150755Z AUTO 00000KT 7SM SCT070 BKN090 20/20 A3016 RMK AO1 T02000200
Observed
Sep-15 @ 07:55 UTC
Visibility
7 SM
Flight Rules
VFR
Cloud Levels
  • Scattered at 7,000' AGL
  • Broken at 9,000' AGL
Temperature
20°C / 68°F
Dewpoint
20°C / 68°F
Humidity
100%
Altimeter
30.16" Hg
Pressure
1021.32 hPa
Previous

50 mins ago

KGVE 150735Z AUTO 00000KT 7SM BKN075 BKN085 OVC090 20/20 A3015 RMK AO1 T02010201
Observed
Sep-15 @ 07:35 UTC
Visibility
7 SM
Flight Rules
VFR
Cloud Levels
  • Broken at 7,500' AGL
  • Broken at 8,500' AGL
  • Overcast at 9,000' AGL
Temperature
20°C / 68°F
Dewpoint
20°C / 68°F
Humidity
100%
Altimeter
30.15" Hg
Pressure
1021.02 hPa